메인 페이지
METAR-TAF:

METAR-TAF

공항 :

칼즈배드, 캘리포니아, 미국

위도: 33-07-48N, 경도: 117-16-33W, 고도: 100m

현재 날씨관측

예보는 53분 전, 18:17시(UTC)에 발표되었습니다.
서남서8kt
온도 19°C
습도 68%
기압 1012 hPa
시정: 16.1km
고도 1700ft 상공 구름 조금
고도 2200ft 상공 구름 보통

METAR: KCRQ 191817Z AUTO 24008KT 10SM FEW017 SCT022 19/13 A2987 RMK AO2 T01890133

시각: 12:10 (19:10 UTC)

예보

예보는 1 시간 31분 전, 17:39시(UTC)에 발표되었습니다.
예보 대상 시간: 19일 18시부터 20일 18시까지 (UTC)
서남서7kt
시정: 10km
고도 1800ft 상공 구름 보통
20일 0100시부터 (UTC)
4kt
시정: 10km
고도 1500ft 상공 구름 보통
20일 0300시부터 (UTC)
여러 방향의 바람 4kt
시정: 10km
고도 800ft 상공 흐림
20일 1100시부터 (UTC)
여러 방향의 바람 3kt
시정: 8.0km
고도 600ft 상공 흐림
박무,

TAF: KCRQ 191739Z 1918/2018 24007KT P6SM SCT018 FM200100 26004KT P6SM SCT015 FM200300 VRB04KT P6SM OVC008 FM201100 VRB03KT 5SM BR OVC006

4,000개 이상의 공항 관측 자료 및 예보 (METAR 및 TAF 보고).

지도상에서 검색 가능한 기상관측소가 노란 점과 빨간 점으로 표시되어 있습니다.

기상관측소 명을 보려면 표시 위로 마우스를 이동하세요.

날씨 관측과 예보를 보려면 클릭하세요.

지도 변경 : 확대하려면 엑스 표시가 있는 녹색 버튼, 축소하려면 빼기 표시가 있는 녹색 버튼, 다음 페이지의 지도를 보려면 녹색 화살표를 클릭하세요.


METAR-TAF: